Time;durP1;ratioP1;P1;durP2;ratioP2;P2;SDS_P1;SDS_P2;PMS_P1;PMS_P2;Temp;Humidity;BMP_temperature;BMP_pressure;BME280_temperature;BME280_humidity;BME280_pressure;Samples;Min_cycle;Max_cycle;Signal;HPM_P1;HPM_P2
2022/10/12 00:01:37;;;;;;;27.75;14.02;;;15.00;99.90;;;;;;5066961;28;20048;-79
2022/10/12 00:04:02;;;;;;;29.33;14.40;;;15.00;99.90;;;;;;5064717;28;20044;-79
2022/10/12 00:06:28;;;;;;;24.60;14.80;;;15.00;99.90;;;;;;5064441;28;20059;-80
2022/10/12 00:08:54;;;;;;;24.20;14.77;;;15.00;99.90;;;;;;5083311;28;20051;-79
2022/10/12 00:11:26;;;;;;;23.13;13.40;;;14.90;99.90;;;;;;5070065;28;20039;-80
2022/10/12 00:13:52;;;;;;;21.83;13.65;;;14.90;99.90;;;;;;5073157;28;20087;-79
2022/10/12 00:16:20;;;;;;;25.83;14.80;;;14.80;99.90;;;;;;5068310;28;20037;-77
2022/10/12 00:18:50;;;;;;;31.52;14.45;;;14.80;99.90;;;;;;5069538;28;20024;-80
2022/10/12 00:21:16;;;;;;;29.13;14.40;;;14.90;99.90;;;;;;5065928;28;20021;-79
2022/10/12 00:23:43;;;;;;;28.70;15.18;;;14.90;99.90;;;;;;5067573;28;20225;-79
2022/10/12 00:26:12;;;;;;;29.60;13.63;;;14.80;99.90;;;;;;5065248;28;20017;-79
2022/10/12 00:28:38;;;;;;;26.92;14.77;;;14.80;99.90;;;;;;5068980;28;20048;-79
2022/10/12 00:31:10;;;;;;;26.85;14.82;;;14.80;99.90;;;;;;5081931;28;20410;-79
2022/10/12 00:33:37;;;;;;;32.40;14.95;;;14.80;99.90;;;;;;5068000;28;20420;-79
2022/10/12 00:36:25;;;;;;;26.33;15.20;;;14.80;99.90;;;;;;5072351;28;20047;-79
2022/10/12 00:38:52;;;;;;;27.58;14.18;;;14.80;99.90;;;;;;5067278;28;20070;-80
2022/10/12 00:41:22;;;;;;;32.15;15.80;;;14.80;99.90;;;;;;5069480;28;20238;-79
2022/10/12 00:43:49;;;;;;;35.60;14.07;;;14.70;99.90;;;;;;5070660;28;20249;-79
2022/10/12 00:46:44;;;;;;;33.30;14.85;;;14.70;99.90;;;;;;5066538;28;20020;-79
2022/10/12 00:49:09;;;;;;;;;;;14.70;99.90;;;;;;5055089;28;20041;-79
2022/10/12 00:51:38;;;;;;;24.80;13.70;;;14.70;99.90;;;;;;5063220;28;19983;-79
2022/10/12 00:54:12;;;;;;;26.17;15.52;;;14.70;99.90;;;;;;5069585;28;20021;-80
2022/10/12 00:56:40;;;;;;;24.98;14.63;;;14.70;99.90;;;;;;5074942;28;20117;-79
2022/10/12 00:59:11;;;;;;;28.52;14.35;;;14.70;99.90;;;;;;5067175;28;20312;-80
2022/10/12 01:01:38;;;;;;;30.85;15.05;;;14.70;99.90;;;;;;5070911;28;20020;-79
2022/10/12 01:04:05;;;;;;;27.88;15.60;;;14.70;99.90;;;;;;5066010;28;20086;-80
2022/10/12 01:06:31;;;;;;;27.83;15.50;;;14.70;99.90;;;;;;5068743;28;20327;-80
2022/10/12 01:08:57;;;;;;;32.47;15.05;;;14.70;99.90;;;;;;5065652;28;20096;-80
2022/10/12 01:11:27;;;;;;;33.70;14.73;;;14.70;99.90;;;;;;5070890;28;20037;-80
2022/10/12 01:13:52;;;;;;;30.27;15.63;;;14.70;99.90;;;;;;5063915;28;20110;-79
2022/10/12 01:16:27;;;;;;;25.60;15.60;;;14.70;99.90;;;;;;5062198;28;20337;-79
2022/10/12 01:19:47;;;;;;;32.38;14.88;;;14.70;99.90;;;;;;5074963;28;20092;-79
2022/10/12 01:22:18;;;;;;;33.55;14.77;;;14.70;99.90;;;;;;5033166;28;20057;-79
2022/10/12 01:25:17;;;;;;;25.58;15.18;;;14.70;99.90;;;;;;5063937;28;20037;-79
2022/10/12 01:27:53;;;;;;;29.60;15.90;;;14.60;99.90;;;;;;5075103;28;20075;-79
2022/10/12 01:30:21;;;;;;;28.02;15.50;;;14.60;99.90;;;;;;5077802;28;20016;-79
2022/10/12 01:33:09;;;;;;;31.63;15.70;;;14.60;99.90;;;;;;5072558;28;20060;-79
2022/10/12 01:35:59;;;;;;;30.90;16.40;;;14.60;99.90;;;;;;5068110;28;20052;-79
2022/10/12 01:38:31;;;;;;;30.08;15.18;;;14.60;99.90;;;;;;5067084;28;20056;-80
2022/10/12 01:41:19;;;;;;;24.55;15.70;;;14.60;99.90;;;;;;5068290;28;20092;-80
2022/10/12 01:43:45;;;;;;;29.45;15.38;;;14.60;99.90;;;;;;5064056;28;20029;-79
2022/10/12 01:46:17;;;;;;;28.85;15.10;;;14.60;99.90;;;;;;5065045;28;20208;-79
2022/10/12 01:48:45;;;;;;;24.15;14.48;;;14.50;99.90;;;;;;5061844;28;20021;-79
2022/10/12 01:51:15;;;;;;;27.30;14.73;;;14.50;99.90;;;;;;5063558;28;20028;-80
2022/10/12 01:53:48;;;;;;;24.08;14.52;;;14.60;99.90;;;;;;5068453;28;20332;-80
2022/10/12 01:56:26;;;;;;;28.23;15.57;;;14.50;99.90;;;;;;5069270;28;20040;-79
2022/10/12 01:59:06;;;;;;;26.75;14.93;;;14.50;99.90;;;;;;5068323;28;20032;-79
2022/10/12 02:01:38;;;;;;;28.50;15.43;;;14.50;99.90;;;;;;5069552;28;20023;-79
2022/10/12 02:04:23;;;;;;;27.38;15.02;;;14.50;99.90;;;;;;5065834;28;20032;-80
2022/10/12 02:06:55;;;;;;;32.22;15.50;;;14.50;99.90;;;;;;5075637;28;20021;-80
2022/10/12 02:09:27;;;;;;;25.30;14.40;;;14.50;99.90;;;;;;5067275;28;20033;-79
2022/10/12 02:11:57;;;;;;;26.08;14.77;;;14.50;99.90;;;;;;5076138;28;20082;-79
2022/10/12 02:14:28;;;;;;;31.65;16.67;;;14.50;99.90;;;;;;5062961;28;20032;-79
2022/10/12 02:17:03;;;;;;;29.73;16.35;;;14.40;99.90;;;;;;5062107;28;20087;-80
2022/10/12 02:19:34;;;;;;;33.13;15.38;;;14.40;99.90;;;;;;5068106;28;20051;-79
2022/10/12 02:22:03;;;;;;;27.55;15.52;;;14.40;99.90;;;;;;5072010;28;20020;-80
2022/10/12 02:24:32;;;;;;;31.52;15.73;;;14.40;99.90;;;;;;5067786;28;20101;-80
2022/10/12 02:27:00;;;;;;;31.48;16.45;;;14.40;99.90;;;;;;5069280;28;20013;-80
2022/10/12 02:29:35;;;;;;;27.98;15.57;;;14.30;99.90;;;;;;5070388;28;20020;-80
2022/10/12 02:32:27;;;;;;;25.67;15.13;;;14.30;99.90;;;;;;5066665;28;20197;-80
2022/10/12 02:35:12;;;;;;;28.45;15.05;;;14.30;99.90;;;;;;5066114;28;20052;-79
2022/10/12 02:37:48;;;;;;;31.13;16.75;;;14.20;99.90;;;;;;5069401;28;20036;-80
2022/10/12 02:40:19;;;;;;;21.92;14.80;;;14.20;99.90;;;;;;5065007;28;20234;-79
2022/10/12 02:42:53;;;;;;;33.67;15.52;;;14.20;99.90;;;;;;5066832;28;20012;-80
2022/10/12 02:45:21;;;;;;;27.83;15.07;;;14.20;99.90;;;;;;5063180;28;20029;-79
2022/10/12 02:47:49;;;;;;;27.38;15.15;;;14.20;99.90;;;;;;5064049;28;20032;-79
2022/10/12 02:50:18;;;;;;;27.13;14.57;;;14.20;99.90;;;;;;5067304;28;20029;-80
2022/10/12 02:52:45;;;;;;;31.20;16.05;;;14.20;99.90;;;;;;5062662;28;20029;-80
2022/10/12 02:55:10;;;;;;;30.85;15.02;;;14.20;99.90;;;;;;5079650;28;20012;-79
2022/10/12 02:57:36;;;;;;;23.40;14.25;;;14.20;99.90;;;;;;5066570;28;20040;-79
2022/10/12 03:00:02;;;;;;;25.23;15.45;;;14.20;99.90;;;;;;5071315;28;20077;-80
2022/10/12 03:02:28;;;;;;;28.35;16.23;;;14.20;99.90;;;;;;5065663;28;20044;-80
2022/10/12 03:04:53;;;;;;;27.42;14.65;;;14.10;99.90;;;;;;5068630;28;20080;-82
2022/10/12 03:07:19;;;;;;;30.50;15.43;;;14.10;99.90;;;;;;5072985;28;20136;-79
2022/10/12 03:09:44;;;;;;;30.83;15.43;;;14.10;99.90;;;;;;5065567;28;20021;-79
2022/10/12 03:12:10;;;;;;;28.90;15.65;;;14.10;99.90;;;;;;5062920;28;20232;-80
2022/10/12 03:14:36;;;;;;;27.38;16.13;;;14.10;99.90;;;;;;5060503;28;20029;-79
2022/10/12 03:17:02;;;;;;;28.75;14.73;;;14.10;99.90;;;;;;5062036;28;20217;-79
2022/10/12 03:19:28;;;;;;;26.13;16.17;;;14.00;99.90;;;;;;5067310;28;20023;-79
2022/10/12 03:21:54;;;;;;;28.85;15.88;;;14.10;99.90;;;;;;5070369;28;20028;-79
2022/10/12 03:24:19;;;;;;;27.90;15.85;;;14.10;99.90;;;;;;5067512;28;20254;-79
2022/10/12 03:26:45;;;;;;;28.55;15.90;;;14.00;99.90;;;;;;5066733;28;20040;-80
2022/10/12 03:29:10;;;;;;;30.70;15.93;;;14.00;99.90;;;;;;5070355;28;20072;-79
2022/10/12 03:31:36;;;;;;;34.33;15.82;;;14.00;99.90;;;;;;5080717;28;20339;-79
2022/10/12 03:34:02;;;;;;;30.98;15.70;;;14.00;99.90;;;;;;5069522;28;20100;-79
2022/10/12 03:36:27;;;;;;;25.15;15.20;;;14.00;99.90;;;;;;5068730;28;20218;-79
2022/10/12 03:38:53;;;;;;;25.20;15.02;;;14.00;99.90;;;;;;5064729;28;20021;-80
2022/10/12 03:41:18;;;;;;;28.60;14.88;;;13.90;99.90;;;;;;5067404;28;20034;-79
2022/10/12 03:43:45;;;;;;;23.67;15.15;;;13.90;99.90;;;;;;5062870;28;20021;-79
2022/10/12 03:46:11;;;;;;;28.50;14.77;;;13.90;99.90;;;;;;5064367;28;20024;-79
2022/10/12 03:48:36;;;;;;;28.27;14.88;;;13.90;99.90;;;;;;5062318;28;20077;-79
2022/10/12 03:51:02;;;;;;;28.10;14.77;;;13.80;99.90;;;;;;5061993;28;20048;-79
2022/10/12 03:53:28;;;;;;;27.73;15.82;;;13.80;99.90;;;;;;5068392;28;20015;-80
2022/10/12 03:55:53;;;;;;;28.70;15.15;;;13.80;99.90;;;;;;5073259;28;20021;-79
2022/10/12 03:58:19;;;;;;;29.95;15.57;;;13.80;99.90;;;;;;5071308;28;20051;-79
2022/10/12 04:00:45;;;;;;;33.78;16.20;;;13.80;99.90;;;;;;5064315;28;20025;-79
2022/10/12 04:03:11;;;;;;;31.50;14.93;;;13.80;99.90;;;;;;5069228;28;20047;-79
2022/10/12 04:05:36;;;;;;;28.63;15.70;;;13.70;99.90;;;;;;5068562;28;20013;-79
2022/10/12 04:08:02;;;;;;;26.45;16.52;;;13.70;99.90;;;;;;5065396;28;20040;-81
2022/10/12 04:10:28;;;;;;;26.77;16.05;;;13.70;99.90;;;;;;5059155;28;20028;-92
2022/10/12 04:12:53;;;;;;;30.20;16.27;;;13.70;99.90;;;;;;5058616;28;20059;-80
2022/10/12 04:15:19;;;;;;;29.02;16.05;;;13.70;99.90;;;;;;5051095;28;20025;-80
2022/10/12 04:17:45;;;;;;;32.05;15.63;;;13.70;99.90;;;;;;5050136;28;20033;-80
2022/10/12 04:20:11;;;;;;;28.83;15.50;;;13.60;99.90;;;;;;5064003;28;20016;-79
2022/10/12 04:22:37;;;;;;;25.30;16.33;;;13.60;99.90;;;;;;5067011;28;20028;-83
2022/10/12 04:25:03;;;;;;;23.48;15.82;;;13.60;99.90;;;;;;5064032;28;20049;-80
2022/10/12 04:27:29;;;;;;;27.75;15.85;;;13.60;99.90;;;;;;5059905;28;20405;-79
2022/10/12 04:29:54;;;;;;;29.85;16.05;;;13.60;99.90;;;;;;5065940;28;20024;-79
2022/10/12 04:32:20;;;;;;;36.92;18.75;;;13.60;99.90;;;;;;5064451;28;20036;-79
2022/10/12 04:34:46;;;;;;;29.77;17.77;;;13.60;99.90;;;;;;5061918;28;20040;-80
2022/10/12 04:37:11;;;;;;;25.08;17.33;;;13.60;99.90;;;;;;5057415;28;20566;-80
2022/10/12 04:39:37;;;;;;;29.80;16.55;;;13.60;99.90;;;;;;5060680;28;20025;-80
2022/10/12 04:42:03;;;;;;;30.48;15.98;;;13.60;99.90;;;;;;5055819;28;20021;-79
2022/10/12 04:44:28;;;;;;;32.47;16.20;;;13.50;99.90;;;;;;5058455;28;20013;-79
2022/10/12 04:46:54;;;;;;;34.65;17.38;;;13.60;99.90;;;;;;5054654;28;20209;-79
2022/10/12 04:49:20;;;;;;;28.75;16.55;;;13.60;99.90;;;;;;5056262;28;20032;-80
2022/10/12 04:51:45;;;;;;;28.52;16.42;;;13.50;99.90;;;;;;5053795;28;20033;-80
2022/10/12 04:54:11;;;;;;;31.48;16.67;;;13.50;99.90;;;;;;5069072;28;20064;-80
2022/10/12 04:56:36;;;;;;;32.67;16.25;;;13.50;99.90;;;;;;5064340;28;20473;-80
2022/10/12 04:59:02;;;;;;;28.15;17.33;;;13.50;99.90;;;;;;5057674;28;20021;-79
2022/10/12 05:01:28;;;;;;;28.98;14.55;;;13.40;99.90;;;;;;5060240;28;20489;-80
2022/10/12 05:03:54;;;;;;;27.20;15.20;;;13.40;99.90;;;;;;5056687;28;20071;-80
2022/10/12 05:06:19;;;;;;;34.42;15.70;;;13.40;99.90;;;;;;5056782;28;20029;-80
2022/10/12 05:08:45;;;;;;;27.58;15.77;;;13.40;99.90;;;;;;5056069;28;20021;-79
2022/10/12 05:11:11;;;;;;;26.23;15.60;;;13.40;99.90;;;;;;5054155;28;20025;-80
2022/10/12 05:13:36;;;;;;;25.95;15.82;;;13.30;99.90;;;;;;5056014;28;20462;-79
2022/10/12 05:16:02;;;;;;;26.85;15.60;;;13.30;99.90;;;;;;5054028;28;20037;-82
2022/10/12 05:18:28;;;;;;;24.05;15.02;;;13.40;99.90;;;;;;5058503;28;20020;-82
2022/10/12 05:20:53;;;;;;;28.65;16.40;;;13.30;99.90;;;;;;5062993;28;20044;-82
2022/10/12 05:23:19;;;;;;;26.10;16.08;;;13.30;99.90;;;;;;5058858;28;20021;-83
2022/10/12 05:25:44;;;;;;;29.33;16.25;;;13.30;99.90;;;;;;5067434;28;20016;-82
2022/10/12 05:28:10;;;;;;;37.47;16.77;;;13.30;99.90;;;;;;5058335;28;20053;-82
2022/10/12 05:30:36;;;;;;;29.20;17.27;;;13.30;99.90;;;;;;5076315;28;20020;-82
2022/10/12 05:33:01;;;;;;;35.28;17.13;;;13.30;99.90;;;;;;5061924;28;20531;-82
2022/10/12 05:35:27;;;;;;;29.33;16.55;;;13.40;99.90;;;;;;5057473;28;20025;-82
2022/10/12 05:37:53;;;;;;;35.97;18.67;;;13.40;99.90;;;;;;5062306;28;20036;-82
2022/10/12 05:40:18;;;;;;;29.10;16.77;;;13.40;99.90;;;;;;5055022;28;20043;-82
2022/10/12 05:42:44;;;;;;;27.25;15.75;;;13.40;99.90;;;;;;5057989;28;20100;-81
2022/10/12 05:45:11;;;;;;;30.85;17.25;;;13.40;99.90;;;;;;5063534;28;20580;-81
2022/10/12 05:47:37;;;;;;;29.35;16.65;;;13.40;99.90;;;;;;5054453;28;20028;-81
2022/10/12 05:50:03;;;;;;;27.02;16.92;;;13.40;99.90;;;;;;5052011;28;20112;-81
2022/10/12 05:52:29;;;;;;;23.73;15.15;;;13.40;99.90;;;;;;5051742;28;20017;-82
2022/10/12 05:54:54;;;;;;;28.80;15.80;;;13.40;99.90;;;;;;5069885;28;20400;-81
2022/10/12 05:57:20;;;;;;;29.05;16.58;;;13.40;99.90;;;;;;5057379;28;20112;-81
2022/10/12 05:59:45;;;;;;;32.33;17.33;;;13.30;99.90;;;;;;5059299;28;20027;-82
2022/10/12 06:02:19;;;;;;;29.85;16.98;;;13.30;99.90;;;;;;5056725;28;20040;-81
2022/10/12 06:04:44;;;;;;;26.87;16.50;;;13.40;99.90;;;;;;5057623;28;20103;-82
2022/10/12 06:07:10;;;;;;;28.13;16.55;;;13.40;99.90;;;;;;5055326;28;20104;-82
2022/10/12 06:09:38;;;;;;;27.00;16.40;;;13.30;99.90;;;;;;5053881;28;20448;-82
2022/10/12 06:12:05;;;;;;;32.92;16.20;;;13.30;99.90;;;;;;5053720;28;20497;-81
2022/10/12 06:14:31;;;;;;;27.58;16.73;;;13.40;99.90;;;;;;5052210;28;20017;-82
2022/10/12 06:16:57;;;;;;;29.65;17.15;;;13.40;99.90;;;;;;5051226;28;20094;-82
2022/10/12 06:19:22;;;;;;;26.80;15.73;;;13.40;99.90;;;;;;5057089;28;20111;-82
2022/10/12 06:21:48;;;;;;;23.13;15.13;;;13.40;99.90;;;;;;5059155;28;20081;-80
2022/10/12 06:24:13;;;;;;;30.52;15.98;;;13.30;99.90;;;;;;5058261;28;20025;-80
2022/10/12 06:26:39;;;;;;;34.58;16.63;;;13.40;99.90;;;;;;5055827;28;20420;-80
2022/10/12 06:29:05;;;;;;;31.88;16.60;;;13.30;99.90;;;;;;5060165;28;20032;-80
2022/10/12 06:31:32;;;;;;;27.90;16.30;;;13.40;99.90;;;;;;5067422;28;20392;-80
2022/10/12 06:33:58;;;;;;;31.60;17.30;;;13.40;99.90;;;;;;5057103;28;20080;-80
2022/10/12 06:36:24;;;;;;;25.42;17.83;;;13.40;99.90;;;;;;5059376;28;20133;-80
2022/10/12 06:38:50;;;;;;;36.38;18.15;;;13.40;99.90;;;;;;5054858;28;20032;-80
2022/10/12 06:41:15;;;;;;;28.92;17.52;;;13.40;99.90;;;;;;5056800;28;20021;-80
2022/10/12 06:43:41;;;;;;;28.52;17.65;;;13.40;99.90;;;;;;5052850;28;20516;-80
2022/10/12 06:46:07;;;;;;;29.90;17.83;;;13.40;99.90;;;;;;5054246;28;20473;-80
2022/10/12 06:48:33;;;;;;;31.42;17.25;;;13.50;99.90;;;;;;5051666;28;20032;-80
2022/10/12 06:50:58;;;;;;;32.22;18.30;;;13.50;99.90;;;;;;5051703;28;20029;-80
2022/10/12 06:53:27;;;;;;;29.92;17.25;;;13.60;99.90;;;;;;5056809;28;20366;-80
2022/10/12 06:55:53;;;;;;;35.40;18.52;;;13.60;99.90;;;;;;5062611;28;20074;-80
2022/10/12 06:58:18;;;;;;;28.50;17.38;;;13.70;99.90;;;;;;5061104;28;20419;-80
2022/10/12 07:00:44;;;;;;;38.63;16.20;;;13.70;99.90;;;;;;5054793;28;20135;-80
2022/10/12 07:03:12;;;;;;;30.00;17.48;;;13.80;99.90;;;;;;5057479;28;20016;-80
2022/10/12 07:05:38;;;;;;;30.23;17.95;;;13.90;99.90;;;;;;5053459;28;20027;-80
2022/10/12 07:08:04;;;;;;;34.53;18.38;;;14.00;99.90;;;;;;5054575;28;20029;-80
2022/10/12 07:10:29;;;;;;;27.45;16.50;;;14.00;99.90;;;;;;5052849;28;20017;-80
2022/10/12 07:12:55;;;;;;;29.50;16.90;;;14.00;99.90;;;;;;5051431;28;20104;-80
2022/10/12 07:15:21;;;;;;;25.17;16.23;;;14.10;99.90;;;;;;5051434;28;20017;-80
2022/10/12 07:17:46;;;;;;;27.55;15.88;;;14.10;99.90;;;;;;5055055;28;20111;-80
2022/10/12 07:20:12;;;;;;;26.35;15.85;;;14.10;99.90;;;;;;5059744;28;20025;-80
2022/10/12 07:22:38;;;;;;;23.67;16.17;;;14.10;99.90;;;;;;5057637;28;20543;-80
2022/10/12 07:25:04;;;;;;;34.95;16.40;;;14.10;99.90;;;;;;5056395;28;20021;-80
2022/10/12 07:27:29;;;;;;;26.50;16.33;;;14.10;99.90;;;;;;5056874;28;20021;-80
2022/10/12 07:29:56;;;;;;;28.27;16.48;;;14.10;99.90;;;;;;5065832;28;20428;-80
2022/10/12 07:32:21;;;;;;;27.00;16.15;;;14.10;99.90;;;;;;5061318;28;20374;-80
2022/10/12 07:34:47;;;;;;;27.45;16.02;;;14.20;99.90;;;;;;5058808;28;20038;-80
2022/10/12 07:37:14;;;;;;;28.00;16.42;;;14.30;99.90;;;;;;5054256;28;20036;-80
2022/10/12 07:39:40;;;;;;;25.52;17.00;;;14.30;99.90;;;;;;5057639;28;20146;-80
2022/10/12 07:42:06;;;;;;;33.97;17.33;;;14.40;99.90;;;;;;5052686;28;20175;-80
2022/10/12 07:44:32;;;;;;;27.95;14.93;;;14.50;99.90;;;;;;5054379;28;20028;-80
2022/10/12 07:46:57;;;;;;;29.00;16.27;;;14.50;99.90;;;;;;5051152;28;20025;-80
2022/10/12 07:49:23;;;;;;;26.88;15.63;;;14.40;99.90;;;;;;5051828;28;20084;-81
2022/10/12 07:51:48;;;;;;;27.23;16.98;;;14.40;99.90;;;;;;5050164;28;20116;-80
2022/10/12 07:54:14;;;;;;;29.65;17.13;;;14.50;99.90;;;;;;5052748;28;20497;-80
2022/10/12 07:56:40;;;;;;;26.60;17.00;;;14.50;99.90;;;;;;5066563;28;20021;-80
2022/10/12 07:59:06;;;;;;;33.67;17.70;;;14.70;99.90;;;;;;5058555;28;20074;-80
2022/10/12 08:01:33;;;;;;;25.73;16.70;;;14.80;99.90;;;;;;5061849;28;20017;-80
2022/10/12 08:03:59;;;;;;;32.08;16.45;;;14.90;99.90;;;;;;5057583;28;20484;-80
2022/10/12 08:06:27;;;;;;;31.65;15.93;;;15.00;99.90;;;;;;5058939;28;20047;-80
2022/10/12 08:08:53;;;;;;;26.40;15.77;;;15.10;99.90;;;;;;5056272;28;20020;-80
2022/10/12 08:11:20;;;;;;;23.75;14.43;;;15.20;99.90;;;;;;5055801;28;20354;-80
2022/10/12 08:13:47;;;;;;;25.63;15.75;;;15.30;99.90;;;;;;5055072;28;20056;-80
2022/10/12 08:16:22;;;;;;;29.15;15.45;;;15.40;99.90;;;;;;5053689;28;20116;-80
2022/10/12 08:18:48;;;;;;;29.52;15.63;;;15.50;99.90;;;;;;5072136;28;20181;-80
2022/10/12 08:21:15;;;;;;;23.42;14.45;;;15.50;99.90;;;;;;5059391;28;20115;-80
2022/10/12 08:23:43;;;;;;;22.27;13.68;;;15.60;99.90;;;;;;5062751;28;20416;-80
2022/10/12 08:26:09;;;;;;;25.75;14.73;;;15.70;99.90;;;;;;5057758;28;20029;-80
2022/10/12 08:28:35;;;;;;;26.08;14.57;;;15.80;99.90;;;;;;5059246;28;20067;-80
2022/10/12 08:31:06;;;;;;;24.15;13.40;;;15.90;99.90;;;;;;5072315;28;20095;-80
2022/10/12 08:33:31;;;;;;;24.85;13.60;;;15.90;99.90;;;;;;5058956;28;20114;-80
2022/10/12 08:36:01;;;;;;;25.60;13.60;;;16.00;99.90;;;;;;5061090;28;20516;-80
2022/10/12 08:38:27;;;;;;;24.05;13.43;;;16.00;99.90;;;;;;5057582;28;20039;-80
2022/10/12 08:41:17;;;;;;;23.83;14.13;;;16.10;99.90;;;;;;5058501;28;20025;-80
2022/10/12 08:44:00;;;;;;;21.63;13.38;;;16.10;99.90;;;;;;5055472;28;20037;-80
2022/10/12 08:46:27;;;;;;;20.55;13.30;;;16.10;99.90;;;;;;5054911;28;20557;-80
2022/10/12 08:49:04;;;;;;;25.85;13.43;;;16.10;99.90;;;;;;5053821;28;20397;-80
2022/10/12 08:51:32;;;;;;;20.40;12.57;;;16.20;99.90;;;;;;5053621;28;20025;-79
2022/10/12 08:53:57;;;;;;;23.30;12.25;;;16.30;99.90;;;;;;5052635;28;20449;-80
2022/10/12 08:56:23;;;;;;;24.08;14.30;;;16.40;99.90;;;;;;5062331;28;20142;-80
2022/10/12 08:58:51;;;;;;;22.92;13.18;;;16.50;99.90;;;;;;5059639;28;20401;-80
2022/10/12 09:01:35;;;;;;;23.83;13.50;;;16.60;99.90;;;;;;5058989;28;20100;-80
2022/10/12 09:04:04;;;;;;;;;;;16.70;99.90;;;;;;5065550;28;20048;-80
2022/10/12 09:06:36;;;;;;;26.67;13.32;;;16.80;99.90;;;;;;5061275;28;19989;-80
2022/10/12 09:09:07;;;;;;;23.10;12.93;;;16.90;99.90;;;;;;5058691;28;20029;-80
2022/10/12 09:12:00;;;;;;;24.90;12.88;;;16.90;99.90;;;;;;5055942;28;20044;-80
2022/10/12 09:14:34;;;;;;;21.17;11.85;;;17.00;99.90;;;;;;5053169;28;20108;-80
2022/10/12 09:17:04;;;;;;;17.50;11.10;;;17.20;99.90;;;;;;5052691;28;20033;-80
2022/10/12 09:19:39;;;;;;;23.58;12.10;;;17.30;99.90;;;;;;5058584;28;20017;-80
2022/10/12 09:22:16;;;;;;;24.25;12.40;;;17.30;99.90;;;;;;5063216;28;20056;-80
2022/10/12 09:24:41;;;;;;;24.17;11.50;;;17.30;99.90;;;;;;5056849;28;20025;-80
2022/10/12 09:27:14;;;;;;;24.67;12.00;;;17.40;99.90;;;;;;5060652;28;20118;-79
2022/10/12 09:29:43;;;;;;;22.52;12.20;;;17.50;99.90;;;;;;5060517;28;20552;-80
2022/10/12 09:32:12;;;;;;;19.77;11.15;;;17.60;99.90;;;;;;5057794;28;20033;-80
2022/10/12 09:34:38;;;;;;;21.33;11.15;;;17.60;99.90;;;;;;5061965;28;20039;-80
2022/10/12 09:37:05;;;;;;;23.35;12.15;;;17.70;99.90;;;;;;5066702;28;20502;-80
2022/10/12 09:39:36;;;;;;;19.42;11.43;;;17.80;99.90;;;;;;5065273;28;20051;-80
2022/10/12 09:42:02;;;;;;;21.15;11.77;;;17.90;99.90;;;;;;5060171;28;20021;-80
2022/10/12 09:44:39;;;;;;;20.65;11.13;;;18.00;99.90;;;;;;5056701;28;20027;-80
2022/10/12 09:47:20;;;;;;;22.33;10.95;;;17.90;99.90;;;;;;5053130;28;20107;-80
2022/10/12 09:49:50;;;;;;;18.98;10.05;;;18.00;99.90;;;;;;5053406;28;20029;-80
2022/10/12 09:52:25;;;;;;;24.40;11.60;;;18.00;99.90;;;;;;5052102;28;20064;-80
2022/10/12 09:54:58;;;;;;;24.48;11.32;;;18.00;99.90;;;;;;5056191;28;20032;-80
2022/10/12 09:57:29;;;;;;;20.25;10.27;;;18.00;99.90;;;;;;5057350;28;20044;-80
2022/10/12 09:59:55;;;;;;;21.98;10.15;;;18.10;99.90;;;;;;5063778;28;20034;-81
2022/10/12 10:02:25;;;;;;;19.08;10.00;;;18.20;99.90;;;;;;5056982;28;20513;-80
2022/10/12 10:04:53;;;;;;;19.42;10.35;;;18.40;99.90;;;;;;5063262;28;20025;-80
2022/10/12 10:07:33;;;;;;;22.02;10.60;;;18.60;99.90;;;;;;5063970;28;20104;-80
2022/10/12 10:10:15;;;;;;;18.73;9.35;;;18.80;99.90;;;;;;5064072;28;20024;-80
2022/10/12 10:12:57;;;;;;;19.60;8.70;;;18.90;99.90;;;;;;5055305;28;20094;-80
2022/10/12 10:15:26;;;;;;;15.20;8.80;;;19.10;99.90;;;;;;5055662;28;20021;-80
2022/10/12 10:17:59;;;;;;;15.88;9.35;;;19.30;99.90;;;;;;5054502;28;20094;-80
2022/10/12 10:20:58;;;;;;;17.27;8.43;;;19.70;99.90;;;;;;5058108;28;20017;-80
2022/10/12 10:23:27;;;;;;;20.45;9.55;;;20.00;99.90;;;;;;5071064;28;20054;-80
2022/10/12 10:26:07;;;;;;;19.83;8.70;;;20.20;99.90;;;;;;5069057;28;20393;-80
2022/10/12 10:28:37;;;;;;;19.55;8.43;;;20.10;99.90;;;;;;5055634;28;20119;-80
2022/10/12 10:31:21;;;;;;;19.83;7.75;;;20.40;99.90;;;;;;5061168;28;20166;-80
2022/10/12 10:34:11;;;;;;;17.23;7.40;;;20.80;99.90;;;;;;5052005;28;20602;-80
2022/10/12 10:36:51;;;;;;;21.15;7.88;;;21.00;99.90;;;;;;5051883;28;20017;-80
2022/10/12 10:39:27;;;;;;;14.88;10.23;;;20.90;99.90;;;;;;5055747;28;20028;-79
2022/10/12 10:41:54;;;;;;;19.23;10.55;;;20.60;99.90;;;;;;5062262;28;20032;-79
2022/10/12 10:44:26;;;;;;;17.65;11.45;;;19.80;99.90;;;;;;5055506;28;20120;-79
2022/10/12 10:46:54;;;;;;;17.08;11.18;;;19.30;99.90;;;;;;5059428;28;20519;-79
2022/10/12 10:49:33;;;;;;;18.13;11.00;;;19.20;99.90;;;;;;5054270;28;20055;-79
2022/10/12 10:52:01;;;;;;;16.63;11.27;;;19.10;99.90;;;;;;5056894;28;20052;-79
2022/10/12 10:54:32;;;;;;;17.98;11.50;;;18.90;99.90;;;;;;5053137;28;20029;-79
2022/10/12 10:57:04;;;;;;;18.00;11.02;;;18.70;99.90;;;;;;5053922;28;20032;-79
2022/10/12 10:59:38;;;;;;;15.88;10.75;;;18.80;99.90;;;;;;5051383;28;20025;-79
2022/10/12 11:02:23;;;;;;;;;;;18.80;99.90;;;;;;5051439;28;20032;-79
2022/10/12 11:05:02;;;;;;;21.10;12.10;;;18.80;99.90;;;;;;5062152;28;20162;-79
2022/10/12 11:07:44;;;;;;;18.90;12.27;;;18.70;99.90;;;;;;5067837;28;20074;-79
2022/10/12 11:10:26;;;;;;;21.20;12.27;;;18.50;99.90;;;;;;5055743;28;20036;-80
2022/10/12 11:13:02;;;;;;;19.08;12.25;;;18.30;99.90;;;;;;5067870;28;20029;-79
2022/10/12 11:15:41;;;;;;;17.90;11.00;;;18.20;99.90;;;;;;5058028;28;20032;-79
2022/10/12 11:18:34;;;;;;;20.85;12.55;;;18.10;99.90;;;;;;5052843;28;20029;-79
2022/10/12 11:21:02;;;;;;;17.67;10.88;;;18.10;99.90;;;;;;5053681;28;20114;-80
2022/10/12 11:23:39;;;;;;;15.68;10.60;;;18.40;99.90;;;;;;5051224;28;20028;-80
2022/10/12 11:26:24;;;;;;;19.02;10.98;;;18.50;99.90;;;;;;5061245;28;20031;-79
2022/10/12 11:28:53;;;;;;;19.65;11.70;;;18.50;99.90;;;;;;5058301;28;20032;-80
2022/10/12 11:31:36;;;;;;;22.38;12.30;;;18.50;99.90;;;;;;5072754;28;20103;-79
2022/10/12 11:34:05;;;;;;;17.08;11.45;;;18.50;99.90;;;;;;5060998;28;20055;-79
2022/10/12 11:36:34;;;;;;;20.65;12.50;;;18.30;99.90;;;;;;5062197;28;20025;-79
2022/10/12 11:39:06;;;;;;;19.85;11.80;;;18.20;99.90;;;;;;5058660;28;20216;-79
2022/10/12 11:41:44;;;;;;;15.05;11.70;;;18.40;99.90;;;;;;5060030;28;20107;-79
2022/10/12 11:44:29;;;;;;;17.98;12.50;;;18.40;99.90;;;;;;5057316;28;20050;-79
2022/10/12 11:47:05;;;;;;;20.52;12.75;;;18.40;99.90;;;;;;5055713;28;20024;-79
2022/10/12 11:49:43;;;;;;;19.30;11.48;;;18.30;99.90;;;;;;5056712;28;20020;-79
2022/10/12 11:52:10;;;;;;;21.45;12.85;;;18.40;99.90;;;;;;5054282;28;20021;-79
2022/10/12 11:55:18;;;;;;;18.67;12.30;;;18.80;99.90;;;;;;5056664;28;20025;-79
2022/10/12 11:57:45;;;;;;;14.48;11.60;;;18.90;99.90;;;;;;5060151;28;20033;-79
2022/10/12 12:00:22;;;;;;;18.80;10.95;;;19.10;99.90;;;;;;5063458;28;20381;-79
2022/10/12 12:03:08;;;;;;;22.20;12.05;;;19.20;99.90;;;;;;5058435;28;20551;-80
2022/10/12 12:05:33;;;;;;;74.05;19.05;;;19.40;99.90;;;;;;5058313;28;20108;-79
2022/10/12 12:07:59;;;;;;;39.95;13.85;;;19.40;99.90;;;;;;5057589;28;20430;-79
2022/10/12 12:10:33;;;;;;;35.65;13.15;;;19.40;99.90;;;;;;5057113;28;20031;-79
2022/10/12 12:13:16;;;;;;;24.48;11.98;;;19.50;99.90;;;;;;5055049;28;20017;-79
2022/10/12 12:16:11;;;;;;;15.65;10.48;;;19.50;99.90;;;;;;5053404;28;20072;-79
2022/10/12 12:19:12;;;;;;;17.63;10.07;;;19.70;99.90;;;;;;5054885;28;20036;-79
2022/10/12 12:22:08;;;;;;;28.17;11.80;;;19.90;99.90;;;;;;5050462;28;20037;-79
2022/10/12 12:24:35;;;;;;;31.13;12.80;;;19.70;99.90;;;;;;5058856;28;20060;-79
2022/10/12 12:27:01;;;;;;;24.85;10.60;;;19.70;99.90;;;;;;5061318;28;20017;-79
2022/10/12 12:29:28;;;;;;;20.80;10.52;;;19.80;99.90;;;;;;5055885;28;20036;-79
2022/10/12 12:31:59;;;;;;;15.77;10.00;;;20.00;99.90;;;;;;5065889;28;20017;-79
2022/10/12 12:34:26;;;;;;;22.23;10.98;;;20.20;99.90;;;;;;5063271;28;20527;-79
2022/10/12 12:36:52;;;;;;;19.48;10.30;;;20.10;99.90;;;;;;5058299;28;20086;-79
2022/10/12 12:39:31;;;;;;;16.25;9.27;;;19.90;99.90;;;;;;5060029;28;20531;-79
2022/10/12 12:42:02;;;;;;;17.77;10.70;;;19.90;99.90;;;;;;5059248;28;20079;-79
2022/10/12 12:44:40;;;;;;;18.85;9.60;;;19.70;99.90;;;;;;5058554;28;20545;-79